SÍGUENOS

APP INUMET

Disponible en Google Play

Productos aeronáuticos

  • SIGMET
  • METAR / SPECI
  • TAF
  • AIREP
  • Aviso de aeródromo
  • Pronárea
  • Carta superficie

Mensajes METAR de la última hora

SULS 240200Z 05006KT 9999 SCT030 OVC070 16/14 Q1015
SUMU 240200Z 12009KT 9999 OVC030 18/13 Q1014 NOSIG

Mensajes METAR de la última hora - Internacionales


Argentina
SAAR 240200Z 09005KT CAVOK 19/16 Q1010
SABE 240200Z 09006KT CAVOK 17/14 Q1013
SACO 240200Z 25004KT CAVOK 08/02 Q1013
SAEZ 240200Z 06014KT CAVOK 19/14 Q1012
SAME 240200Z 27003KT CAVOK 09/M04 Q1012
Bolivia
SLLP 240200Z 08007KT 9999 NSC 03/M03 Q1034
Brasil
SBSP 240245Z AUTO 12005KT 090V170 2800 BR SCT002 OVC006 15/14 Q1025
SBSP 240214Z AUTO 13007KT 100V160 4900 BR SCT003 OVC006 15/14 Q1025
SBSP 240203Z 14005KT 5000 BR SCT003 OVC006 15/14 Q1025
SBSP 240200Z 12004KT 4000 BR SCT003 BKN005 15/14 Q1025
SBRJ 240200Z 08005KT 9999 FEW030 BKN050 20/16 Q1023
SBPA 240200Z 09004KT CAVOK 18/16 Q1017
SBGR 240200Z 07005KT CAVOK 14/14 Q1025
SBFL 240200Z 35006KT 6000 -RA BKN010 BKN020 19/17 Q1024
SBFI 240200Z 10007KT CAVOK 20/16 Q1016
SBBR 240200Z 14008KT CAVOK 17/10 Q1022
Colombia
SKBO 240200Z 36004KT 9999 FEW020 SCT200 10/06 A3032
Chile
SCCI 240200Z 07014KT 9999 FEW040 BKN080 04/M01 Q0986 NOSIG
SCEL 240200Z 17005KT 8000 FEW025 BKN040 11/08 Q1016 NOSIG
Ecuador
SEQM 240244Z 11002KT 2000 0800S R36/1100N FG OVC002 12/12 Q1027 BECMG FM0330 3000 RMK A3034
SEQM 240214Z VRB02KT 3000 1000S R36/P2000N BR OVC003 13/12 Q1026 NOSIG RMK A3032
SEQM 240205Z 07002KT 4000 BCFG BKN003 12/12 Q1026 TEMPO 6000 RMK A3031
SEQM 240200Z 02003KT 9999 FEW008 12/12 Q1026 NOSIG RMK A3030
EEUU
KMIA 240253Z 10006KT 10SM FEW022TCU SCT080 SCT130 BKN250 28/24 A2991 RMK AO2 SLP129 TCU E T02830244 51017
KDCA 240252Z 34006KT 10SM BKN070 BKN250 24/17 A2991 RMK AO2 SLP129 T02390167 53010
KIAD 240252Z 02006KT 10SM SCT070 23/14 A2992 RMK AO2 SLP129 T02280144 53010
KJFK 240251Z 02004KT 10SM FEW250 23/13 A2987 RMK AO2 SLP115 T02330128 51007
KLGA 240251Z 33007KT 10SM FEW250 24/13 A2986 RMK AO2 SLP110 T02440128 50005 $
España
LEBL 240230Z 35002KT 9999 FEW020 24/19 Q1017 NOSIG
LEMD 240230Z 36002KT CAVOK 21/11 Q1016 NOSIG
LEBL 240200Z 31006KT 9999 FEW018 24/19 Q1017 NOSIG
LEMD 240200Z VRB02KT CAVOK 23/11 Q1016 NOSIG
Francia
LFPO 240230Z 22001KT 9999 SCT043 14/12 Q1018 NOSIG
LFPO 240200Z 28001KT 9999 BKN043 15/12 Q1018 NOSIG
Inglaterra
EGLL 240250Z AUTO 24005KT 9999 NCD 14/12 Q1016 NOSIG
EGLL 240220Z AUTO 24006KT 9999 NCD 14/12 Q1016
Panamá
MPTO 240200Z 00000KT 9999 FEW018 SCT090 25/25 Q1011 NOSIG
Paraguay
SGAS 240200Z 06013KT CAVOK 26/16 Q1011
Venezuela
SVMI 240200Z 09002KT 9999 BKN013 28/25 Q1010

* Datos extraidos del Text DataServer de la NOAA (NOAA TEXT DATA SERVER)

Instituto Uruguayo de Meteorología

Dr. Javier Barrios Amorín 1488 - CP 11200
Mesa Central (598) 1895

Montevideo - Uruguay